createdAt,value
2018-08-28T16:02:08.835Z,31.30
2018-08-28T16:12:01.662Z,29.50
2018-08-28T16:14:30.504Z,29.50
2018-08-28T16:16:59.278Z,29.60
2018-08-28T16:19:27.539Z,30.00
2018-08-28T16:21:57.989Z,29.20
2018-08-28T16:24:26.442Z,29.90
2018-08-28T16:26:54.992Z,29.40
2018-08-28T16:29:23.685Z,29.50
2018-08-28T16:31:52.061Z,29.60
2018-08-28T16:34:20.854Z,29.20
2018-08-28T16:44:13.397Z,27.80
2018-08-28T16:46:41.677Z,27.90
2018-08-28T16:49:09.845Z,26.70
2018-08-28T16:54:06.125Z,28.20
2018-08-28T16:56:34.506Z,28.00
2018-08-28T17:01:30.998Z,28.40
2018-08-28T17:04:00.033Z,28.20
2018-08-28T17:06:28.527Z,28.30
2018-08-28T17:08:57.017Z,27.80
2018-08-28T17:13:53.692Z,26.40
2018-08-28T17:16:21.966Z,26.50
2018-08-28T17:21:20.030Z,26.00
2018-08-28T17:36:09.601Z,24.60
2018-08-28T17:38:41.131Z,24.60
2018-08-28T17:41:09.875Z,24.90
2018-08-28T17:48:43.993Z,23.90
2018-08-28T17:51:12.954Z,23.40
2018-08-28T17:56:09.600Z,22.30
2018-08-28T17:58:38.318Z,22.50
2018-08-28T18:01:07.153Z,22.30
2018-08-28T18:06:10.012Z,22.30
2018-08-28T18:11:06.560Z,22.30
2018-08-28T18:13:34.969Z,22.40
2018-08-28T18:16:03.318Z,22.30
2018-08-28T18:18:31.737Z,22.30
2018-08-28T18:21:00.074Z,22.20
2018-08-28T18:23:28.298Z,21.90
2018-08-28T18:25:56.752Z,21.60
2018-08-28T18:28:25.847Z,21.30
2018-08-28T18:30:57.891Z,21.10
2018-08-28T18:33:26.211Z,20.90
2018-08-28T18:38:22.769Z,20.70
2018-08-28T18:40:51.044Z,20.60
2018-08-28T18:45:47.229Z,20.50
2018-08-28T18:48:15.784Z,20.40
2018-08-28T18:50:44.037Z,20.30
2018-08-28T18:53:13.555Z,20.10
2018-08-28T19:00:38.263Z,19.80
2018-08-28T19:05:34.829Z,19.50
2018-08-28T19:08:03.249Z,19.50
2018-08-28T19:10:31.515Z,19.20
2018-08-28T19:13:00.176Z,19.20
2018-08-28T19:20:39.225Z,18.90
2018-08-28T19:23:13.721Z,18.70
2018-08-28T19:25:42.853Z,18.70
2018-08-28T19:28:11.525Z,18.70
2018-08-28T19:33:11.154Z,18.60
2018-08-28T19:38:07.828Z,18.50
2018-08-28T19:40:36.065Z,18.70
2018-08-28T19:43:08.517Z,18.60
2018-08-28T19:48:05.596Z,18.60
2018-08-28T19:55:30.360Z,18.80
2018-08-28T20:00:26.590Z,18.90
2018-08-28T20:02:55.021Z,18.80
2018-08-28T20:05:23.346Z,18.70
2018-08-28T20:07:51.655Z,18.70
2018-08-28T20:12:47.853Z,18.40
2018-08-28T20:20:12.822Z,18.20
2018-08-28T20:22:41.665Z,18.20
2018-08-28T20:25:09.885Z,18.10
2018-08-28T20:27:38.235Z,18.30
2018-08-28T20:30:07.112Z,18.40
2018-08-28T20:32:35.450Z,18.50
2018-08-28T20:35:03.997Z,18.30
2018-08-28T20:37:32.257Z,18.30
2018-08-28T20:42:29.268Z,18.30
2018-08-28T20:44:57.689Z,18.20
2018-08-28T20:47:25.953Z,18.00
2018-08-28T20:49:54.246Z,18.00
2018-08-28T20:54:50.725Z,18.00
2018-08-28T20:57:20.677Z,18.00
2018-08-28T20:59:49.109Z,17.80
2018-08-28T21:07:13.869Z,17.50
2018-08-28T21:09:42.198Z,17.50
2018-08-28T21:14:38.716Z,17.30
2018-08-28T21:17:06.980Z,17.20
2018-08-28T21:19:35.201Z,17.10
2018-08-28T21:22:03.451Z,17.10
2018-08-28T21:24:31.715Z,17.00
2018-08-28T21:26:59.926Z,17.00
2018-08-28T21:29:28.241Z,16.90
2018-08-28T21:34:24.458Z,16.80
2018-08-28T21:36:53.537Z,16.80
2018-08-28T21:41:50.029Z,16.70
2018-08-28T21:44:19.234Z,16.60
2018-08-28T21:46:49.170Z,16.50
2018-08-28T21:49:17.900Z,16.50
2018-08-28T21:51:46.128Z,16.40
2018-08-28T21:54:16.404Z,16.40
2018-08-28T21:59:12.787Z,16.40
